createdAt,value
2018-03-27T00:00:55.848Z,98065.19
2018-03-27T00:03:24.098Z,98070.11
2018-03-27T00:05:53.115Z,98072.97
2018-03-27T00:08:21.353Z,98070.88
2018-03-27T00:10:49.605Z,98065.55
2018-03-27T00:13:17.851Z,98064.72
2018-03-27T00:15:46.098Z,98065.75
2018-03-27T00:18:15.100Z,98064.55
2018-03-27T00:20:43.357Z,98061.95
2018-03-27T00:23:12.374Z,98059.97
2018-03-27T00:25:40.616Z,98063.25
2018-03-27T00:28:27.272Z,98056.45
2018-03-27T00:31:13.446Z,98058.23
2018-03-27T00:33:59.594Z,98060.36
2018-03-27T00:36:45.927Z,98054.34
2018-03-27T00:39:32.797Z,98060.83
2018-03-27T00:45:04.118Z,98055.36
2018-03-27T00:47:32.403Z,98060.42
2018-03-27T00:50:00.636Z,98059.05
2018-03-27T00:52:28.894Z,98059.89
2018-03-27T00:54:57.141Z,98064.97
2018-03-27T00:57:25.393Z,98075.27
2018-03-27T00:59:53.638Z,98065.92
2018-03-27T01:02:21.901Z,98072.36
2018-03-27T01:04:50.150Z,98078.70
2018-03-27T01:07:18.408Z,98077.42
2018-03-27T01:09:46.645Z,98083.66
2018-03-27T01:12:14.956Z,98080.88
2018-03-27T01:14:43.198Z,98077.48
2018-03-27T01:17:11.443Z,98077.73
2018-03-27T01:19:39.696Z,98079.01
2018-03-27T01:22:07.936Z,98077.02
2018-03-27T01:24:36.189Z,98067.39
2018-03-27T01:27:04.428Z,98064.73
2018-03-27T01:29:32.693Z,98066.27
2018-03-27T01:32:00.926Z,98070.94
2018-03-27T01:34:29.947Z,98070.56
2018-03-27T01:36:58.195Z,98072.48
2018-03-27T01:39:26.446Z,98071.47
2018-03-27T01:41:54.693Z,98064.84
2018-03-27T01:44:22.946Z,98066.98
2018-03-27T01:46:51.186Z,98066.43
2018-03-27T01:49:19.434Z,98068.70
2018-03-27T01:51:47.683Z,98068.13
2018-03-27T01:54:15.939Z,98060.05
2018-03-27T01:56:44.945Z,98063.41
2018-03-27T01:59:13.210Z,98058.56
2018-03-27T02:01:41.448Z,98064.04
2018-03-27T02:04:11.081Z,98063.27
2018-03-27T02:06:40.084Z,98066.45
2018-03-27T02:09:08.341Z,98065.49
2018-03-27T02:11:42.952Z,98061.23
2018-03-27T02:14:16.784Z,98062.67
2018-03-27T02:16:50.589Z,98063.17
2018-03-27T02:19:25.212Z,98065.58
2018-03-27T02:21:52.821Z,98066.27
2018-03-27T02:27:17.900Z,98060.02
2018-03-27T02:29:46.173Z,98058.52
2018-03-27T02:32:14.417Z,98065.27
2018-03-27T02:34:42.680Z,98066.15
2018-03-27T02:37:10.928Z,98066.77
2018-03-27T02:39:39.187Z,98060.17
2018-03-27T02:42:07.466Z,98057.91
2018-03-27T02:44:35.707Z,98063.05
2018-03-27T02:47:04.730Z,98065.16
2018-03-27T02:49:32.978Z,98062.09
2018-03-27T02:52:01.245Z,98066.54
2018-03-27T02:54:29.486Z,98062.37
2018-03-27T02:56:57.739Z,98066.28
2018-03-27T02:59:26.039Z,98062.78
2018-03-27T03:01:54.240Z,98057.03
2018-03-27T03:04:22.494Z,98053.98
2018-03-27T03:06:50.735Z,98052.17
2018-03-27T03:09:18.981Z,98055.41
2018-03-27T03:11:48.010Z,98056.20
2018-03-27T03:14:16.241Z,98058.77
2018-03-27T03:16:44.497Z,98061.85
2018-03-27T03:19:12.741Z,98060.66
2018-03-27T03:21:41.028Z,98054.84
2018-03-27T03:24:09.277Z,98058.30
2018-03-27T03:26:37.518Z,98061.80
2018-03-27T03:29:06.547Z,98059.95
2018-03-27T03:31:34.786Z,98061.94
2018-03-27T03:34:03.046Z,98059.05
2018-03-27T03:36:31.282Z,98057.00
2018-03-27T03:38:59.540Z,98056.19
2018-03-27T03:41:27.798Z,98057.19
2018-03-27T03:43:56.826Z,98061.16
2018-03-27T03:46:25.067Z,98061.10
2018-03-27T03:48:53.316Z,98065.92
2018-03-27T03:51:21.567Z,98070.53
2018-03-27T03:53:49.823Z,98070.09
2018-03-27T03:56:18.067Z,98065.37
2018-03-27T03:58:47.094Z,98064.80
2018-03-27T04:01:15.345Z,98059.05
2018-03-27T04:03:43.603Z,98058.44
2018-03-27T04:06:11.845Z,98052.77
2018-03-27T04:08:40.097Z,98051.83
2018-03-27T04:11:08.349Z,98054.88
2018-03-27T04:13:37.364Z,98060.01
2018-03-27T04:16:05.608Z,98060.45
2018-03-27T04:18:34.734Z,98059.58
2018-03-27T04:21:02.988Z,98061.10
2018-03-27T04:23:31.234Z,98060.50
2018-03-27T04:25:59.499Z,98060.57
2018-03-27T04:28:27.749Z,98052.27
2018-03-27T04:30:55.996Z,98056.16
2018-03-27T04:33:25.006Z,98051.92
2018-03-27T04:35:53.284Z,98060.82
2018-03-27T04:38:21.526Z,98056.73
2018-03-27T04:40:49.776Z,98063.11
2018-03-27T04:43:18.021Z,98057.67
2018-03-27T04:45:47.050Z,98060.11
2018-03-27T04:48:15.301Z,98065.92
2018-03-27T04:50:43.541Z,98066.73
2018-03-27T04:53:11.791Z,98062.38
2018-03-27T04:55:40.822Z,98061.64
2018-03-27T04:58:09.072Z,98057.44
2018-03-27T05:00:38.085Z,98058.73
2018-03-27T05:03:06.338Z,98059.48
2018-03-27T05:05:35.353Z,98061.75
2018-03-27T05:08:03.600Z,98061.98
2018-03-27T05:10:31.854Z,98059.11
2018-03-27T05:13:00.098Z,98063.63
2018-03-27T05:15:28.340Z,98061.95
2018-03-27T05:17:57.350Z,98059.58
2018-03-27T05:20:25.591Z,98071.59
2018-03-27T05:22:54.609Z,98066.05
2018-03-27T05:25:22.859Z,98062.73
2018-03-27T05:27:51.113Z,98063.42
2018-03-27T05:30:19.367Z,98069.91
2018-03-27T05:32:47.646Z,98060.73
2018-03-27T05:35:15.866Z,98063.58
2018-03-27T05:37:44.115Z,98060.78
2018-03-27T05:40:12.367Z,98068.15
2018-03-27T05:42:40.626Z,98069.14
2018-03-27T05:45:08.865Z,98064.83
2018-03-27T05:47:37.878Z,98071.66
2018-03-27T05:50:06.145Z,98074.80
2018-03-27T05:52:34.398Z,98072.08
2018-03-27T05:55:02.654Z,98076.94
2018-03-27T05:57:30.909Z,98074.52
2018-03-27T05:59:59.156Z,98076.38
2018-03-27T06:02:27.427Z,98075.89
2018-03-27T06:04:56.445Z,98066.34
2018-03-27T06:07:24.702Z,98069.20
2018-03-27T06:09:52.956Z,98067.59
2018-03-27T06:12:21.966Z,98073.83
2018-03-27T06:14:50.217Z,98076.59
2018-03-27T06:17:18.463Z,98072.53
2018-03-27T06:19:46.710Z,98077.05
2018-03-27T06:22:14.968Z,98069.96
2018-03-27T06:24:43.971Z,98069.55
2018-03-27T06:27:12.221Z,98071.03
2018-03-27T06:29:41.233Z,98071.87
2018-03-27T06:32:09.490Z,98083.33
2018-03-27T06:34:37.742Z,98085.94
2018-03-27T06:37:05.986Z,98086.15
2018-03-27T06:39:34.246Z,98089.14
2018-03-27T06:42:02.539Z,98081.25
2018-03-27T06:44:31.512Z,98084.59
2018-03-27T06:46:59.777Z,98079.95
2018-03-27T06:49:28.025Z,98080.55
2018-03-27T06:51:57.049Z,98083.95
2018-03-27T06:54:25.331Z,98086.74
2018-03-27T06:56:54.315Z,98084.05
2018-03-27T06:59:22.565Z,98089.90
2018-03-27T07:01:51.581Z,98098.33
2018-03-27T07:04:19.831Z,98101.03
2018-03-27T07:06:48.077Z,98112.56
2018-03-27T07:09:17.097Z,98119.31
2018-03-27T07:11:45.370Z,98102.56
2018-03-27T07:14:13.595Z,98086.63
2018-03-27T07:16:41.872Z,98098.41
2018-03-27T07:19:10.141Z,98094.86
2018-03-27T07:21:39.105Z,98093.68
2018-03-27T07:24:07.890Z,98093.64
2018-03-27T07:26:36.897Z,98090.34
2018-03-27T07:29:05.155Z,98092.66
2018-03-27T07:31:33.389Z,98081.25
2018-03-27T07:34:01.640Z,98076.78
2018-03-27T07:36:29.881Z,98077.55
2018-03-27T07:38:58.133Z,98074.52
2018-03-27T07:41:26.381Z,98073.19
2018-03-27T07:43:54.634Z,98066.39
2018-03-27T07:46:22.878Z,98065.55
2018-03-27T07:48:51.127Z,98069.31
2018-03-27T07:51:19.374Z,98069.27
2018-03-27T07:53:47.630Z,98071.42
2018-03-27T07:56:15.882Z,98073.55
2018-03-27T07:58:44.904Z,98065.41
2018-03-27T08:01:13.174Z,98068.05
2018-03-27T08:03:41.422Z,98067.72
2018-03-27T08:06:10.449Z,98066.46
2018-03-27T08:08:38.693Z,98062.92
2018-03-27T08:11:07.740Z,98056.25
2018-03-27T08:13:35.953Z,98056.50
2018-03-27T08:16:04.214Z,98051.58
2018-03-27T08:18:32.479Z,98050.09
2018-03-27T08:21:00.717Z,98047.38
2018-03-27T08:23:28.965Z,98042.97
2018-03-27T08:25:57.964Z,98043.60
2018-03-27T08:28:26.980Z,98044.86
2018-03-27T08:30:55.220Z,98037.89
2018-03-27T08:33:23.466Z,98035.48
2018-03-27T08:35:51.779Z,98039.66
2018-03-27T08:38:20.793Z,98036.05
2018-03-27T08:40:49.036Z,98039.31
2018-03-27T08:43:17.291Z,98043.66
2018-03-27T08:45:45.536Z,98046.30
2018-03-27T08:48:13.789Z,98040.50
2018-03-27T08:50:42.028Z,98032.80
2018-03-27T08:53:10.275Z,98034.06
2018-03-27T08:55:38.519Z,98037.34
2018-03-27T08:58:06.770Z,98025.30
2018-03-27T09:00:35.015Z,98024.52
2018-03-27T09:03:04.038Z,98018.55
2018-03-27T09:05:32.285Z,98024.12
2018-03-27T09:08:00.522Z,98021.05
2018-03-27T09:10:28.783Z,98024.08
2018-03-27T09:12:57.784Z,98019.84
2018-03-27T09:15:26.045Z,98028.18
2018-03-27T09:17:55.066Z,98018.11
2018-03-27T09:20:23.345Z,98028.87
2018-03-27T09:22:52.323Z,98029.66
2018-03-27T09:25:20.572Z,98023.64
2018-03-27T09:27:49.578Z,98021.16
2018-03-27T09:30:18.597Z,98024.38
2018-03-27T09:32:46.845Z,98017.97
2018-03-27T09:35:15.861Z,98007.70
2018-03-27T09:37:44.110Z,98005.20
2018-03-27T09:40:13.165Z,97997.09
2018-03-27T09:42:41.393Z,97996.73
2018-03-27T09:45:09.644Z,97990.77
2018-03-27T09:47:37.886Z,97991.16
2018-03-27T09:50:06.134Z,97971.78
2018-03-27T09:52:34.387Z,97977.72
2018-03-27T09:55:03.390Z,97978.36
2018-03-27T09:57:31.654Z,97981.78
2018-03-27T09:59:59.897Z,97981.20
2018-03-27T10:02:28.149Z,97968.19
2018-03-27T10:04:56.397Z,97971.55
2018-03-27T10:07:24.646Z,97968.72
2018-03-27T10:09:53.657Z,97968.66
2018-03-27T10:12:21.905Z,97962.42
2018-03-27T10:14:50.925Z,97976.80
2018-03-27T10:17:19.174Z,97964.72
2018-03-27T10:19:47.425Z,97967.51
2018-03-27T10:22:15.671Z,97967.09
2018-03-27T10:24:43.930Z,97963.71
2018-03-27T10:27:12.176Z,97947.69
2018-03-27T10:29:40.426Z,97951.48
2018-03-27T10:32:09.442Z,97956.52
2018-03-27T10:34:37.690Z,97947.25
2018-03-27T10:37:05.951Z,97945.59
2018-03-27T10:39:34.207Z,97937.16
2018-03-27T10:42:02.461Z,97937.95
2018-03-27T10:44:31.487Z,97933.78
2018-03-27T10:46:59.735Z,97928.72
2018-03-27T10:49:28.742Z,97927.47
2018-03-27T10:51:56.997Z,97923.70
2018-03-27T10:54:26.005Z,97925.80
2018-03-27T10:56:54.262Z,97924.52
2018-03-27T10:59:23.270Z,97921.61
2018-03-27T11:01:51.515Z,97917.79
2018-03-27T11:04:19.763Z,97921.59
2018-03-27T11:06:48.006Z,97917.34
2018-03-27T11:09:16.252Z,97912.33
2018-03-27T11:11:45.270Z,97907.68
2018-03-27T11:14:13.518Z,97892.94
2018-03-27T11:16:42.529Z,97903.06
2018-03-27T11:19:11.542Z,97901.38
2018-03-27T11:21:39.790Z,97902.63
2018-03-27T11:24:08.809Z,97895.91
2018-03-27T11:26:37.054Z,97887.83
2018-03-27T11:29:06.061Z,97881.81
2018-03-27T11:31:34.310Z,97881.86
2018-03-27T11:34:02.550Z,97895.05
2018-03-27T11:36:30.794Z,97884.34
2018-03-27T11:38:59.045Z,97886.85
2018-03-27T11:41:28.061Z,97883.21
2018-03-27T11:43:56.313Z,97886.64
2018-03-27T11:46:25.329Z,97873.04
2018-03-27T11:48:54.340Z,97871.45
2018-03-27T11:51:22.585Z,97853.19
2018-03-27T11:53:51.599Z,97861.61
2018-03-27T11:56:19.845Z,97854.88
2018-03-27T11:58:48.851Z,97850.80
2018-03-27T12:01:17.858Z,97857.85
2018-03-27T12:03:46.095Z,97847.80
2018-03-27T12:06:14.342Z,97842.77
2018-03-27T12:08:42.594Z,97854.13
2018-03-27T12:11:10.841Z,97852.08
2018-03-27T12:13:39.854Z,97842.40
2018-03-27T12:16:08.109Z,97850.40
2018-03-27T12:18:37.121Z,97835.63
2018-03-27T12:21:05.377Z,97829.73
2018-03-27T12:23:34.396Z,97842.40
2018-03-27T12:26:02.640Z,97832.31
2018-03-27T12:28:31.657Z,97836.09
2018-03-27T12:30:59.905Z,97833.13
2018-03-27T12:33:28.921Z,97823.41
2018-03-27T12:35:57.169Z,97816.65
2018-03-27T12:38:26.186Z,97822.62
2018-03-27T12:40:54.430Z,97823.03
2018-03-27T12:43:22.691Z,97815.02
2018-03-27T12:45:50.929Z,97814.59
2018-03-27T12:48:19.186Z,97798.63
2018-03-27T12:50:47.435Z,97813.36
2018-03-27T12:53:16.488Z,97808.28
2018-03-27T12:55:44.699Z,97806.18
2018-03-27T12:58:12.973Z,97811.66
2018-03-27T13:00:41.214Z,97799.39
2018-03-27T13:03:09.457Z,97801.97
2018-03-27T13:05:37.729Z,97802.81
2018-03-27T13:08:06.728Z,97788.08
2018-03-27T13:10:34.977Z,97788.49
2018-03-27T13:13:03.994Z,97788.05
2018-03-27T13:15:32.251Z,97785.57
2018-03-27T13:18:01.254Z,97775.89
2018-03-27T13:20:30.274Z,97775.47
2018-03-27T13:22:58.513Z,97782.19
2018-03-27T13:25:27.538Z,97765.34
2018-03-27T13:27:55.782Z,97768.73
2018-03-27T13:30:24.816Z,97772.08
2018-03-27T13:32:53.064Z,97758.63
2018-03-27T13:35:21.314Z,97759.85
2018-03-27T13:37:49.559Z,97750.89
2018-03-27T13:40:17.812Z,97750.41
2018-03-27T13:42:46.057Z,97745.93
2018-03-27T13:45:15.091Z,97745.41
2018-03-27T13:47:43.334Z,97737.31
2018-03-27T13:50:12.334Z,97736.52
2018-03-27T13:52:40.589Z,97731.41
2018-03-27T13:55:09.590Z,97733.48
2018-03-27T13:57:38.610Z,97728.52
2018-03-27T14:00:08.505Z,97721.41
2018-03-27T14:02:36.749Z,97724.04
2018-03-27T14:05:04.994Z,97719.84
2018-03-27T14:07:33.245Z,97717.05
2018-03-27T14:10:01.489Z,97709.16
2018-03-27T14:12:30.502Z,97708.20
2018-03-27T14:14:58.755Z,97703.61
2018-03-27T14:17:27.023Z,97704.13
2018-03-27T14:19:55.254Z,97703.66
2018-03-27T14:22:23.499Z,97712.77
2018-03-27T14:24:51.741Z,97715.44
2018-03-27T14:27:19.989Z,97702.89
2018-03-27T14:29:48.257Z,97700.48
2018-03-27T14:32:16.505Z,97680.61
2018-03-27T14:34:44.757Z,97693.30
2018-03-27T14:37:13.761Z,97691.25
2018-03-27T14:39:42.014Z,97690.76
2018-03-27T14:42:10.258Z,97692.55
2018-03-27T14:44:38.759Z,97690.41
2018-03-27T14:47:07.139Z,97689.98
2018-03-27T14:49:36.411Z,97674.39
2018-03-27T14:52:04.999Z,97689.13
2018-03-27T14:54:33.553Z,97685.77
2018-03-27T14:57:02.255Z,97675.21
2018-03-27T14:59:30.683Z,97684.92
2018-03-27T15:01:59.711Z,97682.85
2018-03-27T15:04:27.982Z,97683.29
2018-03-27T15:06:56.986Z,97676.96
2018-03-27T15:09:25.252Z,97673.60
2018-03-27T15:11:53.503Z,97672.73
2018-03-27T15:14:22.537Z,97673.58
2018-03-27T15:16:50.777Z,97671.92
2018-03-27T15:19:19.895Z,97664.36
2018-03-27T15:21:48.158Z,97662.66
2018-03-27T15:24:16.406Z,97658.00
2018-03-27T15:26:44.650Z,97654.66
2018-03-27T15:29:12.999Z,97647.48
2018-03-27T15:31:41.253Z,97643.18
2018-03-27T15:34:10.269Z,97639.68
2018-03-27T15:36:38.537Z,97642.25
2018-03-27T15:39:06.784Z,97622.27
2018-03-27T15:41:35.797Z,97614.45
2018-03-27T15:44:04.057Z,97611.30
2018-03-27T15:46:33.074Z,97603.50
2018-03-27T15:49:01.321Z,97600.47
2018-03-27T15:51:29.574Z,97596.64
2018-03-27T15:53:57.823Z,97590.73
2018-03-27T15:56:26.074Z,97583.62
2018-03-27T15:58:54.320Z,97580.89
2018-03-27T16:01:22.571Z,97578.84
2018-03-27T16:03:50.824Z,97571.23
2018-03-27T16:06:19.059Z,97574.23
2018-03-27T16:08:48.073Z,97573.30
2018-03-27T16:11:16.321Z,97569.61
2018-03-27T16:13:45.374Z,97568.13
2018-03-27T16:16:13.631Z,97568.05
2018-03-27T16:18:41.892Z,97566.06
2018-03-27T16:21:10.126Z,97554.34
2018-03-27T16:23:38.377Z,97560.02
2018-03-27T16:26:06.679Z,97553.35
2018-03-27T16:28:34.891Z,97553.37
2018-03-27T16:31:03.137Z,97547.94
2018-03-27T16:33:32.175Z,97545.47
2018-03-27T16:36:00.410Z,97535.72
2018-03-27T16:38:28.659Z,97534.94
2018-03-27T16:40:56.907Z,97533.70
2018-03-27T16:43:25.165Z,97536.22
2018-03-27T16:45:53.406Z,97533.33
2018-03-27T16:48:21.644Z,97529.11
2018-03-27T16:50:49.909Z,97528.30
2018-03-27T16:53:18.153Z,97527.06
2018-03-27T16:55:47.165Z,97522.86
2018-03-27T16:58:15.421Z,97517.83
2018-03-27T17:00:44.439Z,97516.54
2018-03-27T17:03:12.700Z,97518.72
2018-03-27T17:05:40.952Z,97514.88
2018-03-27T17:08:09.186Z,97515.78
2018-03-27T17:10:37.434Z,97517.05
2018-03-27T17:13:05.676Z,97522.52
2018-03-27T17:15:34.694Z,97521.69
2018-03-27T17:18:02.933Z,97514.53
2018-03-27T17:20:31.185Z,97508.25
2018-03-27T17:22:59.438Z,97504.05
2018-03-27T17:25:27.688Z,97496.91
2018-03-27T17:27:55.940Z,97493.97
2018-03-27T17:30:24.198Z,97498.61
2018-03-27T17:32:52.442Z,97496.11
2018-03-27T17:35:20.686Z,97486.44
2018-03-27T17:37:49.697Z,97492.77
2018-03-27T17:40:17.973Z,97491.08
2018-03-27T17:42:46.226Z,97496.12
2018-03-27T17:45:15.238Z,97496.14
2018-03-27T17:47:43.482Z,97498.67
2018-03-27T17:50:12.494Z,97501.59
2018-03-27T17:52:41.512Z,97498.24
2018-03-27T17:55:09.757Z,97483.97
2018-03-27T17:57:38.784Z,97476.82
2018-03-27T18:00:07.026Z,97475.55
2018-03-27T18:02:36.045Z,97478.93
2018-03-27T18:05:04.284Z,97483.54
2018-03-27T18:07:33.302Z,97481.88
2018-03-27T18:10:01.550Z,97489.02
2018-03-27T18:12:30.573Z,97486.91
2018-03-27T18:14:58.818Z,97485.66
2018-03-27T18:17:27.841Z,97488.17
2018-03-27T18:19:56.098Z,97495.33
2018-03-27T18:22:25.113Z,97499.11
2018-03-27T18:24:53.358Z,97486.09
2018-03-27T18:27:22.377Z,97485.24
2018-03-27T18:29:50.622Z,97483.99
2018-03-27T18:32:19.629Z,97493.66
2018-03-27T18:34:48.695Z,97500.81
2018-03-27T18:37:16.938Z,97499.13
2018-03-27T18:39:45.197Z,97501.64
2018-03-27T18:42:13.491Z,97506.25
2018-03-27T18:44:41.844Z,97498.66
2018-03-27T18:47:10.175Z,97500.77
2018-03-27T18:49:38.437Z,97502.45
2018-03-27T18:52:06.721Z,97498.24
2018-03-27T18:54:34.983Z,97507.06
2018-03-27T18:57:03.256Z,97515.90
2018-03-27T18:59:31.532Z,97503.73
2018-03-27T19:01:59.791Z,97504.17
2018-03-27T19:04:28.037Z,97500.80
2018-03-27T19:06:56.418Z,97502.08
2018-03-27T19:09:25.466Z,97505.43
2018-03-27T19:11:53.687Z,97503.77
2018-03-27T19:14:22.707Z,97502.07
2018-03-27T19:16:50.973Z,97497.89
2018-03-27T19:19:19.253Z,97495.77
2018-03-27T19:21:47.507Z,97500.81
2018-03-27T19:24:16.519Z,97500.39
2018-03-27T19:26:44.781Z,97496.19
2018-03-27T19:29:13.265Z,97498.73
2018-03-27T19:31:42.470Z,97488.20
2018-03-27T19:34:10.725Z,97485.67
2018-03-27T19:36:39.750Z,97484.44
2018-03-27T19:39:08.145Z,97481.91
2018-03-27T19:41:36.469Z,97473.91
2018-03-27T19:44:05.490Z,97479.37
2018-03-27T19:46:33.761Z,97475.17
2018-03-27T19:49:02.010Z,97470.55
2018-03-27T19:51:31.177Z,97469.30
2018-03-27T19:53:59.524Z,97471.41
2018-03-27T19:56:27.819Z,97468.45
2018-03-27T19:58:56.077Z,97460.91
2018-03-27T20:01:24.334Z,97458.38
2018-03-27T20:03:52.578Z,97449.56
2018-03-27T20:06:20.831Z,97449.55
2018-03-27T20:08:49.180Z,97448.73
2018-03-27T20:11:18.523Z,97442.41
2018-03-27T20:13:46.744Z,97443.69
2018-03-27T20:16:15.006Z,97440.77
2018-03-27T20:18:43.254Z,97444.55
2018-03-27T20:21:11.505Z,97437.80
2018-03-27T20:23:39.862Z,97428.98
2018-03-27T20:26:08.124Z,97431.09
2018-03-27T20:28:36.366Z,97423.53
2018-03-27T20:31:05.390Z,97424.35
2018-03-27T20:33:33.653Z,97418.05
2018-03-27T20:36:01.917Z,97422.70
2018-03-27T20:38:30.937Z,97418.92
2018-03-27T20:40:59.188Z,97421.00
2018-03-27T20:43:28.194Z,97410.52
2018-03-27T20:45:56.442Z,97408.42
2018-03-27T20:48:24.703Z,97406.31
2018-03-27T20:50:52.945Z,97407.16
2018-03-27T20:53:21.208Z,97400.03
2018-03-27T20:55:49.460Z,97401.27
2018-03-27T20:58:18.482Z,97405.06
2018-03-27T21:00:46.730Z,97392.05
2018-03-27T21:03:15.752Z,97398.32
2018-03-27T21:05:43.997Z,97390.77
2018-03-27T21:08:13.024Z,97386.98
2018-03-27T21:10:41.282Z,97387.39
2018-03-27T21:13:09.541Z,97388.25
2018-03-27T21:15:38.555Z,97391.19
2018-03-27T21:18:06.803Z,97392.02
2018-03-27T21:20:35.053Z,97391.59
2018-03-27T21:23:03.303Z,97388.25
2018-03-27T21:25:31.550Z,97389.09
2018-03-27T21:27:59.794Z,97385.73
2018-03-27T21:30:28.054Z,97387.83
2018-03-27T21:32:56.290Z,97387.40
2018-03-27T21:35:24.546Z,97386.56
2018-03-27T21:37:53.550Z,97383.62
2018-03-27T21:40:21.802Z,97377.75
2018-03-27T21:42:50.805Z,97380.69
2018-03-27T21:45:19.822Z,97375.67
2018-03-27T21:47:48.095Z,97371.45
2018-03-27T21:50:16.349Z,97370.63
2018-03-27T21:52:45.372Z,97368.52
2018-03-27T21:55:13.610Z,97364.71
2018-03-27T21:57:42.626Z,97370.14
2018-03-27T22:00:10.862Z,97365.11
2018-03-27T22:02:39.119Z,97359.17
2018-03-27T22:05:07.361Z,97358.33
2018-03-27T22:07:35.617Z,97353.72
2018-03-27T22:10:04.740Z,97356.64
2018-03-27T22:12:32.989Z,97363.29
2018-03-27T22:15:02.005Z,97354.86
2018-03-27T22:17:30.253Z,97354.02
2018-03-27T22:19:58.494Z,97361.52
2018-03-27T22:22:26.753Z,97354.82
2018-03-27T22:24:54.994Z,97351.05
2018-03-27T22:27:23.236Z,97348.52
2018-03-27T22:29:51.481Z,97348.95
2018-03-27T22:32:19.733Z,97338.88
2018-03-27T22:34:47.976Z,97343.88
2018-03-27T22:37:16.995Z,97342.19
2018-03-27T22:39:45.232Z,97337.57
2018-03-27T22:42:13.485Z,97335.89
2018-03-27T22:44:41.738Z,97334.16
2018-03-27T22:47:09.992Z,97336.65
2018-03-27T22:49:38.239Z,97332.81
2018-03-27T22:52:06.477Z,97337.04
2018-03-27T22:54:34.730Z,97332.84
2018-03-27T22:57:02.961Z,97327.85
2018-03-27T22:59:31.213Z,97332.84
2018-03-27T23:01:59.463Z,97328.24
2018-03-27T23:04:27.717Z,97325.70
2018-03-27T23:06:55.957Z,97317.33
2018-03-27T23:09:24.205Z,97315.69
2018-03-27T23:11:52.528Z,97314.42
2018-03-27T23:14:21.538Z,97316.13
2018-03-27T23:16:49.787Z,97314.78
2018-03-27T23:19:18.031Z,97313.47
2018-03-27T23:21:46.282Z,97312.61
2018-03-27T23:24:14.542Z,97310.98
2018-03-27T23:26:42.796Z,97317.60
2018-03-27T23:29:11.796Z,97308.81
2018-03-27T23:31:40.809Z,97304.61
2018-03-27T23:34:09.054Z,97310.85
2018-03-27T23:36:38.066Z,97304.18
2018-03-27T23:39:06.323Z,97307.09
2018-03-27T23:41:34.584Z,97298.30
2018-03-27T23:44:02.830Z,97302.84
2018-03-27T23:46:31.073Z,97300.80
2018-03-27T23:48:59.318Z,97303.28
2018-03-27T23:51:27.815Z,97296.61
2018-03-27T23:53:56.066Z,97297.44
2018-03-27T23:56:25.082Z,97293.72
2018-03-27T23:58:53.331Z,97291.12
